createdAt,value
2023-04-16T00:01:34.929Z,14.75
2023-04-16T00:04:01.794Z,14.85
2023-04-16T00:06:28.710Z,15.80
2023-04-16T00:08:55.305Z,15.85
2023-04-16T00:11:22.391Z,14.70
2023-04-16T00:13:49.129Z,15.18
2023-04-16T00:16:16.005Z,15.52
2023-04-16T00:18:42.750Z,14.77
2023-04-16T00:21:09.302Z,15.40
2023-04-16T00:23:35.906Z,15.27
2023-04-16T00:26:02.523Z,14.60
2023-04-16T00:28:29.439Z,15.43
2023-04-16T00:30:56.073Z,15.52
2023-04-16T00:33:24.356Z,14.63
2023-04-16T00:35:51.322Z,14.37
2023-04-16T00:38:18.076Z,15.10
2023-04-16T00:40:44.618Z,14.90
2023-04-16T00:43:11.201Z,14.68
2023-04-16T00:45:38.063Z,15.07
2023-04-16T00:48:05.839Z,13.48
2023-04-16T00:50:33.288Z,14.50
2023-04-16T00:53:01.280Z,14.80
2023-04-16T00:55:27.962Z,14.07
2023-04-16T00:57:54.530Z,14.45
2023-04-16T01:00:21.629Z,14.20
2023-04-16T01:02:48.489Z,14.82
2023-04-16T01:05:15.388Z,14.73
2023-04-16T01:07:41.896Z,14.55
2023-04-16T01:10:08.814Z,13.30
2023-04-16T01:12:35.461Z,14.07
2023-04-16T01:15:02.351Z,14.65
2023-04-16T01:17:28.945Z,14.48
2023-04-16T01:19:59.492Z,13.85
2023-04-16T01:22:27.672Z,14.98
2023-04-16T01:24:54.161Z,15.05
2023-04-16T01:27:20.829Z,13.65
2023-04-16T01:29:47.586Z,13.80
2023-04-16T01:32:14.130Z,14.63
2023-04-16T01:34:40.760Z,14.05
2023-04-16T01:37:07.509Z,14.60
2023-04-16T01:39:34.218Z,14.60
2023-04-16T01:42:01.306Z,15.38
2023-04-16T01:44:28.183Z,14.55
2023-04-16T01:46:54.887Z,15.40
2023-04-16T01:49:22.350Z,15.07
2023-04-16T01:51:48.940Z,14.68
2023-04-16T01:54:15.611Z,14.75
2023-04-16T01:56:42.212Z,15.02
2023-04-16T01:59:08.958Z,15.15
2023-04-16T02:01:35.880Z,14.80
2023-04-16T02:04:02.488Z,14.95
2023-04-16T02:06:29.022Z,15.23
2023-04-16T02:08:55.526Z,15.45
2023-04-16T02:11:22.003Z,14.95
2023-04-16T02:13:48.490Z,14.57
2023-04-16T02:16:14.973Z,15.77
2023-04-16T02:18:41.696Z,15.65
2023-04-16T02:21:08.411Z,15.18
2023-04-16T02:23:34.979Z,15.63
2023-04-16T02:26:03.527Z,14.60
2023-04-16T02:28:30.061Z,15.30
2023-04-16T02:30:56.938Z,14.80
2023-04-16T02:33:26.210Z,15.88
2023-04-16T02:35:53.169Z,15.73
2023-04-16T02:38:19.860Z,15.48
2023-04-16T02:40:46.419Z,15.73
2023-04-16T02:43:13.025Z,14.32
2023-04-16T02:45:39.576Z,15.15
2023-04-16T02:48:08.677Z,14.88
2023-04-16T02:50:35.289Z,15.27
2023-04-16T02:53:01.811Z,15.27
2023-04-16T02:55:29.377Z,14.85
2023-04-16T02:57:56.499Z,14.93
2023-04-16T03:00:23.212Z,14.25
2023-04-16T03:02:49.972Z,14.32
2023-04-16T03:05:16.645Z,14.07
2023-04-16T03:07:43.418Z,14.80
2023-04-16T03:10:11.796Z,14.10
2023-04-16T03:12:39.472Z,14.85
2023-04-16T03:15:06.553Z,14.40
2023-04-16T03:17:33.146Z,14.60
2023-04-16T03:19:59.770Z,15.15
2023-04-16T03:22:26.971Z,14.50
2023-04-16T03:24:53.679Z,15.63
2023-04-16T03:27:20.246Z,15.85
2023-04-16T03:29:46.871Z,15.93
2023-04-16T03:32:13.586Z,16.15
2023-04-16T03:34:40.358Z,15.73
2023-04-16T03:37:06.917Z,16.77
2023-04-16T03:39:34.462Z,16.10
2023-04-16T03:42:02.095Z,16.38
2023-04-16T03:44:29.378Z,16.58
2023-04-16T03:46:56.048Z,16.15
2023-04-16T03:49:22.808Z,16.52
2023-04-16T03:51:49.530Z,16.02
2023-04-16T03:54:16.145Z,15.50
2023-04-16T03:56:43.075Z,14.80
2023-04-16T03:59:10.137Z,14.85
2023-04-16T04:01:36.781Z,15.90
2023-04-16T04:04:03.484Z,15.48
2023-04-16T04:06:30.138Z,15.07
2023-04-16T04:08:56.677Z,16.10
2023-04-16T04:11:23.170Z,16.60
2023-04-16T04:13:49.704Z,16.30
2023-04-16T04:16:16.392Z,16.03
2023-04-16T04:18:44.479Z,14.80
2023-04-16T04:21:11.478Z,15.63
2023-04-16T04:23:38.097Z,15.65
2023-04-16T04:26:05.659Z,16.33
2023-04-16T04:28:32.953Z,15.38
2023-04-16T04:31:00.049Z,15.25
2023-04-16T04:33:28.292Z,14.98
2023-04-16T04:35:55.653Z,14.82
2023-04-16T04:38:25.131Z,15.15
2023-04-16T04:40:52.891Z,14.70
2023-04-16T04:43:20.639Z,13.35
2023-04-16T04:45:49.027Z,14.73
2023-04-16T04:48:16.116Z,14.75
2023-04-16T04:50:43.109Z,14.68
2023-04-16T04:53:14.691Z,14.93
2023-04-16T04:55:41.506Z,15.80
2023-04-16T04:58:08.627Z,15.32
2023-04-16T05:00:36.311Z,14.82
2023-04-16T05:03:04.442Z,14.85
2023-04-16T05:05:31.078Z,15.43
2023-04-16T05:07:57.673Z,15.88
2023-04-16T05:10:24.317Z,16.10
2023-04-16T05:12:50.975Z,15.13
2023-04-16T05:15:17.598Z,14.82
2023-04-16T05:17:44.268Z,15.90
2023-04-16T05:20:11.492Z,15.27
2023-04-16T05:22:38.101Z,15.63
2023-04-16T05:25:05.385Z,15.00
2023-04-16T05:27:32.160Z,15.20
2023-04-16T05:29:58.744Z,15.65
2023-04-16T05:32:26.260Z,14.88
2023-04-16T05:34:53.152Z,15.60
2023-04-16T05:37:19.700Z,14.93
2023-04-16T05:39:46.306Z,15.10
2023-04-16T05:42:12.889Z,15.55
2023-04-16T05:44:40.546Z,14.88
2023-04-16T05:47:09.232Z,14.80
2023-04-16T05:49:39.314Z,14.98
2023-04-16T05:52:07.332Z,14.32
2023-04-16T05:54:34.049Z,14.50
2023-04-16T05:57:01.550Z,14.68
2023-04-16T05:59:29.177Z,15.15
2023-04-16T06:01:55.728Z,14.77
2023-04-16T06:04:22.403Z,14.10
2023-04-16T06:06:49.002Z,14.63
2023-04-16T06:09:15.641Z,14.32
2023-04-16T06:11:42.253Z,14.95
2023-04-16T06:14:08.850Z,14.48
2023-04-16T06:16:35.421Z,15.18
2023-04-16T06:19:01.973Z,13.43
2023-04-16T06:21:28.864Z,14.63
2023-04-16T06:23:56.173Z,13.95
2023-04-16T06:26:22.799Z,13.95
2023-04-16T06:28:49.897Z,14.15
2023-04-16T06:31:16.471Z,14.25
2023-04-16T06:33:43.339Z,13.80
2023-04-16T06:36:11.307Z,14.27
2023-04-16T06:38:38.119Z,13.82
2023-04-16T06:41:05.503Z,14.05
2023-04-16T06:43:33.540Z,13.75
2023-04-16T06:46:00.491Z,14.70
2023-04-16T06:48:27.398Z,14.15
2023-04-16T06:50:55.128Z,14.50
2023-04-16T06:53:21.834Z,13.68
2023-04-16T06:55:48.373Z,14.57
2023-04-16T06:58:14.990Z,14.38
2023-04-16T07:00:41.643Z,14.50
2023-04-16T07:03:08.352Z,14.68
2023-04-16T07:05:34.952Z,14.43
2023-04-16T07:08:01.768Z,14.68
2023-04-16T07:10:28.347Z,14.18
2023-04-16T07:12:54.944Z,13.13
2023-04-16T07:15:21.735Z,14.85
2023-04-16T07:17:48.323Z,13.98
2023-04-16T07:20:14.941Z,13.70
2023-04-16T07:22:41.526Z,13.13
2023-04-16T07:25:08.570Z,13.70
2023-04-16T07:27:35.255Z,13.27
2023-04-16T07:30:01.749Z,13.07
2023-04-16T07:32:28.467Z,13.02
2023-04-16T07:34:55.863Z,12.43
2023-04-16T07:37:22.722Z,12.82
2023-04-16T07:39:49.197Z,12.57
2023-04-16T07:42:15.831Z,12.98
2023-04-16T07:44:42.627Z,12.87
2023-04-16T07:47:09.202Z,13.05
2023-04-16T07:49:35.805Z,13.25
2023-04-16T07:52:02.409Z,12.23
2023-04-16T07:54:29.251Z,13.45
2023-04-16T07:56:56.127Z,12.20
2023-04-16T07:59:24.265Z,13.25
2023-04-16T08:01:53.964Z,12.93
2023-04-16T08:04:25.070Z,12.90
2023-04-16T08:06:52.635Z,13.73
2023-04-16T08:09:20.857Z,13.67
2023-04-16T08:11:49.183Z,12.93
2023-04-16T08:14:20.253Z,13.02
2023-04-16T08:16:49.759Z,12.35
2023-04-16T08:19:17.192Z,11.60
2023-04-16T08:21:44.159Z,12.47
2023-04-16T08:24:11.028Z,11.40
2023-04-16T08:26:37.806Z,11.63
2023-04-16T08:29:05.484Z,10.98
2023-04-16T08:31:34.641Z,10.45
2023-04-16T08:34:02.088Z,10.63
2023-04-16T08:36:28.877Z,10.57
2023-04-16T08:38:55.561Z,12.07
2023-04-16T08:41:23.978Z,10.70
2023-04-16T08:43:52.674Z,10.95
2023-04-16T08:46:24.763Z,11.33
2023-04-16T08:48:55.324Z,10.70
2023-04-16T08:51:24.062Z,10.60
2023-04-16T08:53:59.264Z,11.48
2023-04-16T08:56:26.502Z,11.80
2023-04-16T08:58:54.896Z,10.85
2023-04-16T09:01:21.980Z,12.10
2023-04-16T09:03:49.115Z,12.05
2023-04-16T09:06:16.957Z,11.93
2023-04-16T09:08:48.861Z,11.93
2023-04-16T09:11:18.064Z,12.70
2023-04-16T09:13:46.579Z,11.77
2023-04-16T09:16:14.425Z,11.30
2023-04-16T09:18:41.432Z,11.25
2023-04-16T09:21:10.958Z,11.98
2023-04-16T09:23:38.672Z,11.90
2023-04-16T09:26:06.091Z,11.50
2023-04-16T09:28:46.648Z,11.80
2023-04-16T09:31:15.658Z,11.52
2023-04-16T09:33:43.459Z,11.75
2023-04-16T09:36:11.489Z,11.33
2023-04-16T09:38:52.110Z,11.48
2023-04-16T09:41:19.909Z,12.25
2023-04-16T09:44:00.771Z,11.88
2023-04-16T09:46:32.027Z,11.68
2023-04-16T09:48:58.867Z,10.93
2023-04-16T09:51:26.919Z,9.80
2023-04-16T09:53:56.562Z,9.93
2023-04-16T09:56:26.249Z,10.70
2023-04-16T09:59:00.554Z,9.73
2023-04-16T10:01:27.164Z,8.75
2023-04-16T10:03:56.069Z,9.18
2023-04-16T10:06:23.947Z,8.77
2023-04-16T10:08:52.831Z,8.68
2023-04-16T10:11:20.515Z,8.50
2023-04-16T10:13:47.291Z,8.07
2023-04-16T10:16:14.124Z,8.93
2023-04-16T10:18:42.621Z,7.57
2023-04-16T10:21:12.649Z,7.45
2023-04-16T10:23:40.283Z,7.50
2023-04-16T10:26:06.989Z,7.93
2023-04-16T10:28:35.354Z,8.15
2023-04-16T10:31:04.946Z,7.82
2023-04-16T10:33:33.497Z,8.00
2023-04-16T10:36:13.307Z,7.55
2023-04-16T10:38:51.047Z,7.80
2023-04-16T10:41:20.595Z,7.93
2023-04-16T10:43:48.534Z,8.88
2023-04-16T10:46:31.170Z,9.50
2023-04-16T10:49:02.324Z,10.90
2023-04-16T10:51:36.312Z,9.93
2023-04-16T10:54:08.944Z,10.75
2023-04-16T10:56:37.316Z,11.27
2023-04-16T10:59:10.506Z,9.07
2023-04-16T11:01:38.338Z,7.95
2023-04-16T11:04:20.110Z,8.57
2023-04-16T11:07:11.755Z,8.55
2023-04-16T11:09:54.454Z,9.00
2023-04-16T11:12:27.585Z,7.93
2023-04-16T11:14:59.475Z,7.95
2023-04-16T11:17:30.774Z,8.55
2023-04-16T11:19:57.375Z,8.95
2023-04-16T11:22:24.405Z,8.90
2023-04-16T11:24:57.338Z,8.20
2023-04-16T11:27:24.479Z,8.05
2023-04-16T11:30:01.992Z,7.50
2023-04-16T11:32:32.081Z,7.32
2023-04-16T11:34:59.850Z,7.47
2023-04-16T11:37:37.648Z,7.57
2023-04-16T11:40:09.598Z,8.07
2023-04-16T11:42:37.475Z,7.95
2023-04-16T11:45:04.843Z,6.63
2023-04-16T11:47:31.896Z,7.50
2023-04-16T11:50:14.931Z,7.13
2023-04-16T11:52:41.532Z,7.07
2023-04-16T11:55:08.400Z,7.07
2023-04-16T11:57:34.922Z,7.28
2023-04-16T12:00:03.952Z,7.53
2023-04-16T12:02:42.330Z,7.28
2023-04-16T12:05:35.049Z,7.28
2023-04-16T12:08:03.683Z,6.53
2023-04-16T12:10:32.512Z,6.97
2023-04-16T12:13:12.660Z,6.47
2023-04-16T12:15:49.451Z,6.63
2023-04-16T12:18:17.175Z,6.70
2023-04-16T12:20:44.947Z,6.50
2023-04-16T12:23:28.825Z,10.60
2023-04-16T12:25:56.077Z,9.32
2023-04-16T12:28:28.766Z,19.10
2023-04-16T12:30:55.455Z,11.20
2023-04-16T12:33:22.020Z,11.50
2023-04-16T12:35:48.624Z,8.70
2023-04-16T12:38:15.472Z,8.45
2023-04-16T12:40:42.245Z,8.70
2023-04-16T12:43:09.744Z,7.32
2023-04-16T12:45:36.945Z,6.63
2023-04-16T12:48:03.643Z,7.07
2023-04-16T12:50:30.256Z,7.00
2023-04-16T12:52:57.844Z,6.30
2023-04-16T12:55:24.891Z,6.47
2023-04-16T12:57:52.945Z,6.30
2023-04-16T13:00:19.979Z,6.30
2023-04-16T13:02:47.502Z,5.85
2023-04-16T13:05:19.103Z,5.80
2023-04-16T13:07:46.034Z,5.63
2023-04-16T13:10:12.921Z,5.80
2023-04-16T13:12:39.506Z,5.85
2023-04-16T13:15:06.649Z,5.40
2023-04-16T13:17:33.229Z,5.22
2023-04-16T13:19:59.809Z,5.50
2023-04-16T13:22:26.451Z,5.20
2023-04-16T13:24:53.092Z,4.75
2023-04-16T13:27:20.256Z,5.40
2023-04-16T13:29:47.105Z,4.60
2023-04-16T13:32:14.642Z,5.05
2023-04-16T13:34:41.260Z,5.30
2023-04-16T13:37:07.845Z,5.13
2023-04-16T13:39:34.428Z,5.30
2023-04-16T13:42:00.982Z,5.38
2023-04-16T13:44:27.546Z,4.85
2023-04-16T13:46:54.212Z,5.32
2023-04-16T13:49:21.072Z,4.47
2023-04-16T13:51:47.597Z,5.25
2023-04-16T13:54:14.162Z,4.70
2023-04-16T13:56:41.480Z,4.75
2023-04-16T13:59:08.301Z,4.63
2023-04-16T14:01:35.008Z,4.40
2023-04-16T14:04:06.108Z,4.80
2023-04-16T14:06:34.139Z,4.68
2023-04-16T14:09:01.188Z,4.65
2023-04-16T14:11:28.005Z,4.03
2023-04-16T14:13:54.974Z,4.28
2023-04-16T14:16:22.202Z,4.05
2023-04-16T14:18:48.695Z,5.10
2023-04-16T14:21:15.598Z,4.72
2023-04-16T14:23:42.180Z,4.50
2023-04-16T14:26:08.758Z,4.63
2023-04-16T14:28:35.750Z,4.35
2023-04-16T14:31:02.290Z,4.22
2023-04-16T14:33:29.051Z,4.90
2023-04-16T14:35:55.786Z,4.80
2023-04-16T14:38:22.802Z,5.18
2023-04-16T14:40:49.560Z,4.68
2023-04-16T14:43:16.198Z,5.07
2023-04-16T14:45:42.871Z,4.50
2023-04-16T14:48:09.513Z,4.40
2023-04-16T14:50:37.910Z,4.70
2023-04-16T14:53:05.183Z,4.18
2023-04-16T14:55:32.262Z,4.72
2023-04-16T14:57:59.956Z,4.50
2023-04-16T15:00:27.528Z,4.35
2023-04-16T15:02:55.341Z,4.35
2023-04-16T15:05:22.590Z,4.38
2023-04-16T15:07:49.451Z,4.72
2023-04-16T15:10:16.534Z,4.40
2023-04-16T15:12:44.271Z,4.30
2023-04-16T15:15:11.392Z,4.43
2023-04-16T15:17:38.288Z,4.90
2023-04-16T15:20:08.791Z,6.15
2023-04-16T15:22:36.488Z,5.75
2023-04-16T15:25:04.170Z,6.43
2023-04-16T15:27:31.295Z,6.93
2023-04-16T15:29:58.311Z,5.82
2023-04-16T15:32:25.658Z,5.75
2023-04-16T15:34:52.568Z,4.90
2023-04-16T15:37:19.449Z,4.80
2023-04-16T15:39:46.209Z,4.55
2023-04-16T15:42:13.197Z,5.22
2023-04-16T15:44:40.448Z,4.68
2023-04-16T15:47:08.433Z,5.90
2023-04-16T15:49:35.484Z,4.80
2023-04-16T15:52:02.232Z,5.88
2023-04-16T15:54:30.173Z,5.00
2023-04-16T15:56:56.685Z,4.78
2023-04-16T15:59:23.187Z,7.95
2023-04-16T16:01:51.340Z,6.13
2023-04-16T16:04:18.153Z,6.30
2023-04-16T16:06:45.010Z,5.70
2023-04-16T16:09:11.890Z,6.25
2023-04-16T16:11:38.831Z,6.22
2023-04-16T16:14:05.421Z,7.00
2023-04-16T16:16:32.719Z,6.72
2023-04-16T16:18:59.357Z,7.00
2023-04-16T16:21:26.231Z,6.68
2023-04-16T16:23:53.289Z,7.30
2023-04-16T16:26:22.838Z,7.85
2023-04-16T16:28:49.368Z,6.70
2023-04-16T16:31:16.171Z,6.57
2023-04-16T16:33:42.730Z,6.63
2023-04-16T16:36:10.914Z,6.70
2023-04-16T16:38:39.868Z,6.10
2023-04-16T16:41:07.152Z,6.95
2023-04-16T16:43:35.075Z,6.90
2023-04-16T16:46:01.628Z,6.63
2023-04-16T16:48:28.829Z,6.40
2023-04-16T16:50:55.614Z,8.02
2023-04-16T16:53:22.183Z,7.85
2023-04-16T16:55:48.744Z,8.48
2023-04-16T16:58:15.442Z,7.47
2023-04-16T17:00:42.194Z,6.93
2023-04-16T17:03:09.279Z,6.90
2023-04-16T17:05:36.631Z,6.50
2023-04-16T17:08:03.293Z,6.60
2023-04-16T17:10:29.853Z,6.50
2023-04-16T17:12:56.529Z,7.35
2023-04-16T17:15:23.204Z,6.90
2023-04-16T17:17:49.966Z,7.15
2023-04-16T17:20:16.794Z,6.93
2023-04-16T17:22:43.477Z,7.03
2023-04-16T17:25:10.306Z,7.05
2023-04-16T17:27:36.910Z,7.10
2023-04-16T17:30:05.404Z,7.20
2023-04-16T17:32:32.843Z,7.07
2023-04-16T17:35:01.013Z,6.70
2023-04-16T17:37:27.626Z,6.78
2023-04-16T17:39:54.306Z,6.70
2023-04-16T17:42:20.995Z,6.90
2023-04-16T17:44:47.614Z,7.03
2023-04-16T17:47:14.265Z,6.82
2023-04-16T17:49:40.992Z,6.82
2023-04-16T17:52:07.540Z,6.95
2023-04-16T17:54:34.054Z,6.97
2023-04-16T17:57:00.622Z,6.93
2023-04-16T17:59:27.399Z,7.28
2023-04-16T18:01:54.626Z,6.80
2023-04-16T18:04:21.526Z,6.90
2023-04-16T18:06:48.381Z,7.25
2023-04-16T18:09:15.463Z,7.28
2023-04-16T18:11:42.038Z,7.13
2023-04-16T18:14:09.793Z,6.43
2023-04-16T18:16:36.821Z,6.35
2023-04-16T18:19:03.379Z,6.70
2023-04-16T18:21:30.339Z,6.18
2023-04-16T18:23:57.680Z,6.30
2023-04-16T18:26:25.232Z,6.30
2023-04-16T18:28:52.525Z,6.35
2023-04-16T18:31:21.076Z,6.13
2023-04-16T18:33:56.732Z,5.50
2023-04-16T18:36:26.606Z,5.95
2023-04-16T18:39:15.682Z,5.80
2023-04-16T18:41:40.863Z,6.28
2023-04-16T18:44:07.504Z,5.97
2023-04-16T18:46:34.009Z,5.90
2023-04-16T18:49:00.547Z,5.95
2023-04-16T18:51:27.231Z,5.60
2023-04-16T18:53:53.998Z,5.68
2023-04-16T18:56:20.791Z,5.18
2023-04-16T18:58:47.831Z,6.00
2023-04-16T19:01:14.509Z,5.10
2023-04-16T19:03:41.154Z,5.40
2023-04-16T19:06:07.838Z,5.70
2023-04-16T19:08:34.493Z,4.97
2023-04-16T19:11:01.221Z,5.00
2023-04-16T19:13:27.866Z,5.53
2023-04-16T19:16:00.990Z,5.32
2023-04-16T19:18:27.752Z,4.97
2023-04-16T19:21:01.199Z,5.20
2023-04-16T19:23:28.850Z,5.45
2023-04-16T19:25:56.805Z,4.63
2023-04-16T19:28:25.601Z,5.18
2023-04-16T19:30:53.280Z,4.95
2023-04-16T19:33:20.313Z,5.30
2023-04-16T19:35:47.268Z,5.20
2023-04-16T19:38:14.007Z,5.15
2023-04-16T19:40:41.169Z,5.70
2023-04-16T19:43:07.918Z,5.20
2023-04-16T19:45:34.475Z,5.57
2023-04-16T19:48:01.115Z,5.72
2023-04-16T19:50:27.682Z,5.80
2023-04-16T19:52:54.240Z,5.40
2023-04-16T19:55:20.844Z,6.03
2023-04-16T19:57:48.118Z,5.45
2023-04-16T20:00:15.125Z,5.72
2023-04-16T20:02:41.903Z,5.47
2023-04-16T20:05:09.121Z,6.25
2023-04-16T20:07:35.700Z,5.53
2023-04-16T20:10:02.972Z,5.55
2023-04-16T20:12:29.553Z,5.35
2023-04-16T20:14:56.086Z,5.65
2023-04-16T20:17:22.654Z,4.90
2023-04-16T20:19:51.025Z,5.17
2023-04-16T20:22:18.575Z,5.75
2023-04-16T20:24:48.105Z,5.78
2023-04-16T20:27:15.370Z,5.95
2023-04-16T20:29:42.447Z,5.78
2023-04-16T20:32:09.249Z,6.03
2023-04-16T20:34:37.912Z,6.18
2023-04-16T20:37:04.860Z,5.35
2023-04-16T20:39:34.083Z,5.80
2023-04-16T20:42:04.113Z,5.78
2023-04-16T20:44:40.248Z,5.27
2023-04-16T20:47:15.299Z,5.70
2023-04-16T20:49:46.895Z,5.60
2023-04-16T20:52:14.105Z,5.68
2023-04-16T20:54:40.934Z,5.50
2023-04-16T20:57:07.864Z,5.60
2023-04-16T20:59:36.113Z,5.32
2023-04-16T21:02:02.990Z,5.40
2023-04-16T21:04:29.915Z,6.68
2023-04-16T21:06:56.842Z,5.80
2023-04-16T21:09:23.626Z,5.50
2023-04-16T21:11:50.660Z,6.28
2023-04-16T21:14:17.338Z,5.82
2023-04-16T21:16:43.941Z,6.57
2023-04-16T21:19:11.219Z,6.60
2023-04-16T21:21:38.765Z,6.20
2023-04-16T21:24:05.916Z,6.00
2023-04-16T21:26:32.756Z,6.32
2023-04-16T21:28:59.339Z,6.43
2023-04-16T21:31:26.055Z,6.13
2023-04-16T21:33:52.831Z,6.30
2023-04-16T21:36:19.495Z,6.32
2023-04-16T21:38:46.051Z,6.53
2023-04-16T21:41:12.861Z,6.25
2023-04-16T21:43:39.418Z,6.70
2023-04-16T21:46:06.004Z,7.13
2023-04-16T21:48:32.605Z,6.75
2023-04-16T21:51:06.105Z,6.40
2023-04-16T21:53:33.129Z,6.45
2023-04-16T21:55:59.943Z,7.22
2023-04-16T21:58:26.553Z,7.00
2023-04-16T22:00:53.342Z,6.75
2023-04-16T22:03:26.051Z,6.97
2023-04-16T22:06:02.497Z,7.70
2023-04-16T22:08:29.509Z,7.25
2023-04-16T22:10:58.075Z,7.75
2023-04-16T22:13:26.144Z,7.03
2023-04-16T22:15:53.485Z,7.68
2023-04-16T22:18:20.509Z,7.47
2023-04-16T22:20:47.233Z,7.30
2023-04-16T22:23:14.065Z,7.53
2023-04-16T22:25:40.790Z,7.40
2023-04-16T22:28:07.303Z,7.38
2023-04-16T22:30:33.849Z,7.03
2023-04-16T22:33:00.885Z,7.03
2023-04-16T22:35:27.685Z,7.55
2023-04-16T22:37:54.247Z,7.32
2023-04-16T22:40:22.095Z,7.75
2023-04-16T22:42:48.690Z,8.00
2023-04-16T22:45:15.339Z,7.70
2023-04-16T22:47:42.088Z,8.05
2023-04-16T22:50:10.683Z,8.65
2023-04-16T22:52:37.199Z,7.70
2023-04-16T22:55:03.986Z,8.13
2023-04-16T22:57:30.698Z,7.97
2023-04-16T22:59:57.527Z,8.67
2023-04-16T23:02:24.275Z,7.85
2023-04-16T23:04:51.108Z,8.05
2023-04-16T23:07:17.624Z,8.00
2023-04-16T23:09:44.162Z,8.68
2023-04-16T23:12:11.024Z,8.17
2023-04-16T23:14:37.554Z,8.02
2023-04-16T23:17:04.314Z,8.73
2023-04-16T23:19:31.688Z,8.38
2023-04-16T23:21:58.605Z,8.32
2023-04-16T23:24:25.186Z,8.63
2023-04-16T23:26:52.444Z,8.70
2023-04-16T23:29:20.520Z,8.65
2023-04-16T23:31:47.672Z,8.27
2023-04-16T23:34:14.524Z,8.07
2023-04-16T23:36:41.316Z,8.02
2023-04-16T23:39:07.894Z,7.93
2023-04-16T23:41:34.676Z,8.10
2023-04-16T23:44:01.368Z,8.65
2023-04-16T23:46:27.999Z,8.57
2023-04-16T23:48:55.291Z,8.03
2023-04-16T23:51:22.296Z,8.60
2023-04-16T23:53:48.892Z,8.93
2023-04-16T23:56:16.201Z,8.30
2023-04-16T23:58:42.824Z,8.60
